createdAt,value
2022-08-16T00:02:28.785Z,11.77
2022-08-16T00:04:55.223Z,10.68
2022-08-16T00:07:26.611Z,9.80
2022-08-16T00:09:55.787Z,10.65
2022-08-16T00:12:26.719Z,13.05
2022-08-16T00:14:56.494Z,11.43
2022-08-16T00:17:24.060Z,11.68
2022-08-16T00:19:53.782Z,11.10
2022-08-16T00:22:25.083Z,9.85
2022-08-16T00:24:52.675Z,10.73
2022-08-16T00:27:20.987Z,11.55
2022-08-16T00:29:48.189Z,9.88
2022-08-16T00:32:28.346Z,9.32
2022-08-16T00:35:00.473Z,10.25
2022-08-16T00:37:58.809Z,9.80
2022-08-16T00:40:34.290Z,8.90
2022-08-16T00:43:05.693Z,11.95
2022-08-16T00:46:00.186Z,9.65
2022-08-16T00:48:30.732Z,9.80
2022-08-16T00:50:58.520Z,10.95
2022-08-16T00:53:30.882Z,10.27
2022-08-16T00:55:59.056Z,11.18
2022-08-16T00:58:34.989Z,11.60
2022-08-16T01:01:02.150Z,11.82
2022-08-16T01:03:31.573Z,9.68
2022-08-16T01:06:39.583Z,9.48
2022-08-16T01:08:52.623Z,11.23
2022-08-16T01:11:21.853Z,10.50
2022-08-16T01:13:50.739Z,9.00
2022-08-16T01:16:21.823Z,10.88
2022-08-16T01:18:54.732Z,9.57
2022-08-16T01:21:33.869Z,14.25
2022-08-16T01:24:51.599Z,10.50
2022-08-16T01:27:08.352Z,11.27
2022-08-16T01:29:57.340Z,11.18
2022-08-16T01:32:33.225Z,10.30
2022-08-16T01:35:00.365Z,11.13
2022-08-16T01:37:35.572Z,11.20
2022-08-16T01:40:07.257Z,10.02
2022-08-16T01:42:34.035Z,9.63
2022-08-16T01:45:00.632Z,10.65
2022-08-16T01:47:27.868Z,11.95
2022-08-16T01:50:42.430Z,10.98
2022-08-16T01:52:42.526Z,10.75
2022-08-16T01:55:12.958Z,10.98
2022-08-16T01:57:41.530Z,11.40
2022-08-16T02:00:20.643Z,10.52
2022-08-16T02:02:56.355Z,10.68
2022-08-16T02:05:23.685Z,11.02
2022-08-16T02:07:53.471Z,10.60
2022-08-16T02:10:20.507Z,10.05
2022-08-16T02:12:51.445Z,10.23
2022-08-16T02:15:25.360Z,10.43
2022-08-16T02:17:52.728Z,9.30
2022-08-16T02:20:19.848Z,9.27
2022-08-16T02:22:53.065Z,8.95
2022-08-16T02:25:24.538Z,9.18
2022-08-16T02:27:51.692Z,8.82
2022-08-16T02:30:37.644Z,8.90
2022-08-16T02:33:07.467Z,9.80
2022-08-16T02:35:54.133Z,8.73
2022-08-16T02:38:21.733Z,8.32
2022-08-16T02:40:48.417Z,8.57
2022-08-16T02:43:15.256Z,8.45
2022-08-16T02:45:41.682Z,9.02
2022-08-16T02:48:29.370Z,10.30
2022-08-16T02:51:06.359Z,10.23
2022-08-16T02:53:40.790Z,10.18
2022-08-16T02:56:11.077Z,10.85
2022-08-16T02:58:41.639Z,12.40
2022-08-16T03:01:13.920Z,12.40
2022-08-16T03:04:28.890Z,11.88
2022-08-16T03:06:42.705Z,11.82
2022-08-16T03:09:13.811Z,13.05
2022-08-16T03:11:41.606Z,12.77
2022-08-16T03:14:08.478Z,13.00
2022-08-16T03:16:39.138Z,12.85
2022-08-16T03:19:21.648Z,13.30
2022-08-16T03:21:49.408Z,12.95
2022-08-16T03:24:28.113Z,12.25
2022-08-16T03:26:58.877Z,12.10
2022-08-16T03:29:30.386Z,12.57
2022-08-16T03:31:59.002Z,12.98
2022-08-16T03:34:26.104Z,12.30
2022-08-16T03:36:52.425Z,13.57
2022-08-16T03:39:20.383Z,12.30
2022-08-16T03:41:50.063Z,12.55
2022-08-16T03:44:43.466Z,12.93
2022-08-16T03:47:04.140Z,12.52
2022-08-16T03:49:37.216Z,13.32
2022-08-16T03:52:04.084Z,12.00
2022-08-16T03:54:30.516Z,12.27
2022-08-16T03:56:58.688Z,12.75
2022-08-16T03:59:25.471Z,12.07
2022-08-16T04:01:55.990Z,13.13
2022-08-16T04:04:25.160Z,12.65
2022-08-16T04:07:03.010Z,13.77
2022-08-16T04:09:30.898Z,13.13
2022-08-16T04:12:02.732Z,13.07
2022-08-16T04:14:33.325Z,13.70
2022-08-16T04:17:01.642Z,13.13
2022-08-16T04:19:31.837Z,13.68
2022-08-16T04:21:58.540Z,12.70
2022-08-16T04:24:28.833Z,13.98
2022-08-16T04:26:55.530Z,13.43
2022-08-16T04:29:24.901Z,14.85
2022-08-16T04:31:55.656Z,14.23
2022-08-16T04:34:24.829Z,14.20
2022-08-16T04:36:52.698Z,15.02
2022-08-16T04:39:20.016Z,13.82
2022-08-16T04:41:57.476Z,13.65
2022-08-16T04:44:32.372Z,14.32
2022-08-16T04:47:21.446Z,15.18
2022-08-16T04:49:50.800Z,14.60
2022-08-16T04:52:34.850Z,14.18
2022-08-16T04:55:13.665Z,14.07
2022-08-16T04:57:42.241Z,16.08
2022-08-16T05:00:32.098Z,15.35
2022-08-16T05:03:10.594Z,14.80
2022-08-16T05:05:45.515Z,14.70
2022-08-16T05:08:28.838Z,15.70
2022-08-16T05:10:58.768Z,15.48
2022-08-16T05:13:40.070Z,15.10
2022-08-16T05:16:20.037Z,14.40
2022-08-16T05:18:47.323Z,15.00
2022-08-16T05:21:13.849Z,14.07
2022-08-16T05:23:40.176Z,14.98
2022-08-16T05:26:06.532Z,14.57
2022-08-16T05:28:46.147Z,15.85
2022-08-16T05:31:12.592Z,16.70
2022-08-16T05:33:38.932Z,16.10
2022-08-16T05:36:14.563Z,16.58
2022-08-16T05:38:41.033Z,15.50
2022-08-16T05:41:09.501Z,17.23
2022-08-16T05:43:43.266Z,15.82
2022-08-16T05:46:28.848Z,15.68
2022-08-16T05:49:03.598Z,16.88
2022-08-16T05:51:35.235Z,16.27
2022-08-16T05:54:05.660Z,17.13
2022-08-16T05:56:31.976Z,16.40
2022-08-16T05:59:00.641Z,16.50
2022-08-16T06:01:27.805Z,16.92
2022-08-16T06:03:59.655Z,16.98
2022-08-16T06:06:28.091Z,16.65
2022-08-16T06:08:55.559Z,17.25
2022-08-16T06:11:22.144Z,15.93
2022-08-16T06:13:51.937Z,14.82
2022-08-16T06:16:22.151Z,15.60
2022-08-16T06:18:53.383Z,14.88
2022-08-16T06:21:23.828Z,15.95
2022-08-16T06:23:51.088Z,17.40
2022-08-16T06:26:20.604Z,15.38
2022-08-16T06:28:47.169Z,17.60
2022-08-16T06:31:14.109Z,17.30
2022-08-16T06:33:44.648Z,16.55
2022-08-16T06:36:14.038Z,16.42
2022-08-16T06:38:56.013Z,16.08
2022-08-16T06:41:23.219Z,16.23
2022-08-16T06:43:51.174Z,16.48
2022-08-16T06:46:23.700Z,14.75
2022-08-16T06:48:58.462Z,14.93
2022-08-16T06:51:24.888Z,14.25
2022-08-16T06:54:14.163Z,16.63
2022-08-16T06:56:40.893Z,15.80
2022-08-16T06:59:08.999Z,15.80
2022-08-16T07:01:46.279Z,14.73
2022-08-16T07:06:59.938Z,14.90
2022-08-16T07:09:29.755Z,17.35
2022-08-16T07:11:56.945Z,17.90
2022-08-16T07:14:29.664Z,18.98
2022-08-16T07:16:58.135Z,17.35
2022-08-16T07:19:33.676Z,19.08
2022-08-16T07:22:36.731Z,15.50
2022-08-16T07:24:58.093Z,15.90
2022-08-16T07:27:24.855Z,15.35
2022-08-16T07:29:51.632Z,17.70
2022-08-16T07:32:29.178Z,16.70
2022-08-16T07:34:56.127Z,16.65
2022-08-16T07:37:22.439Z,16.45
2022-08-16T07:39:49.637Z,15.25
2022-08-16T07:42:26.104Z,15.40
2022-08-16T07:44:55.550Z,13.18
2022-08-16T07:47:24.568Z,15.70
2022-08-16T07:49:58.336Z,15.37
2022-08-16T07:52:25.074Z,14.95
2022-08-16T07:54:56.446Z,14.60
2022-08-16T07:57:24.139Z,14.32
2022-08-16T07:59:51.056Z,14.13
2022-08-16T08:02:19.847Z,14.20
2022-08-16T08:04:47.281Z,13.23
2022-08-16T08:07:14.709Z,12.07
2022-08-16T08:09:43.498Z,14.25
2022-08-16T08:12:10.300Z,13.45
2022-08-16T08:14:56.852Z,12.75
2022-08-16T08:17:23.211Z,12.93
2022-08-16T08:19:53.246Z,12.65
2022-08-16T08:22:22.189Z,14.02
2022-08-16T08:24:48.816Z,13.13
2022-08-16T08:27:23.217Z,13.02
2022-08-16T08:30:48.940Z,11.75
2022-08-16T08:32:59.583Z,11.63
2022-08-16T08:35:24.380Z,12.45
2022-08-16T08:37:55.698Z,12.70
2022-08-16T08:40:24.266Z,11.13
2022-08-16T08:42:57.948Z,10.65
2022-08-16T08:45:47.844Z,11.90
2022-08-16T08:48:33.518Z,11.75
2022-08-16T08:51:00.417Z,13.52
2022-08-16T08:53:30.361Z,10.43
2022-08-16T08:55:59.289Z,11.50
2022-08-16T08:58:25.904Z,13.63
2022-08-16T09:01:01.259Z,14.02
2022-08-16T09:03:28.070Z,12.23
2022-08-16T09:05:54.376Z,13.38
2022-08-16T09:08:22.247Z,13.20
2022-08-16T09:10:58.819Z,13.75
2022-08-16T09:13:33.092Z,12.27
2022-08-16T09:15:59.563Z,17.88
2022-08-16T09:18:35.723Z,12.68
2022-08-16T09:21:03.194Z,11.70
2022-08-16T09:23:35.570Z,11.10
2022-08-16T09:26:04.388Z,11.38
2022-08-16T09:29:14.359Z,10.93
2022-08-16T09:31:41.128Z,10.02
2022-08-16T09:34:09.268Z,10.25
2022-08-16T09:36:37.220Z,10.27
2022-08-16T09:39:16.055Z,9.73
2022-08-16T09:41:43.364Z,8.48
2022-08-16T09:45:12.781Z,10.55
2022-08-16T09:47:10.683Z,9.25
2022-08-16T09:49:37.551Z,9.00
2022-08-16T09:52:09.449Z,8.30
2022-08-16T09:54:36.107Z,8.50
2022-08-16T09:57:02.936Z,8.52
2022-08-16T09:59:30.682Z,8.77
2022-08-16T10:01:57.278Z,8.38
2022-08-16T10:04:33.944Z,8.52
2022-08-16T10:07:03.025Z,8.00
2022-08-16T10:09:54.356Z,7.10
2022-08-16T10:12:42.708Z,7.13
2022-08-16T10:15:15.812Z,7.82
2022-08-16T10:17:45.363Z,7.50
2022-08-16T10:20:27.780Z,8.02
2022-08-16T10:23:03.635Z,7.97
2022-08-16T10:27:17.976Z,6.03
2022-08-16T10:28:28.779Z,6.63
2022-08-16T10:30:59.142Z,6.60
2022-08-16T10:33:27.187Z,6.28
2022-08-16T10:35:57.674Z,7.20
2022-08-16T10:38:28.337Z,6.20
2022-08-16T10:40:54.757Z,6.15
2022-08-16T10:43:21.133Z,6.18
2022-08-16T10:46:00.021Z,6.30
2022-08-16T10:48:28.858Z,6.65
2022-08-16T10:50:58.664Z,6.82
2022-08-16T10:53:27.708Z,6.57
2022-08-16T10:56:01.294Z,6.63
2022-08-16T10:58:33.925Z,6.68
2022-08-16T11:01:25.002Z,6.28
2022-08-16T11:03:48.871Z,6.30
2022-08-16T11:06:21.549Z,6.18
2022-08-16T11:09:21.028Z,5.38
2022-08-16T11:12:13.976Z,6.07
2022-08-16T11:14:25.924Z,6.47
2022-08-16T11:17:10.583Z,6.72
2022-08-16T11:20:00.469Z,6.38
2022-08-16T11:22:46.950Z,7.05
2022-08-16T11:25:12.352Z,6.38
2022-08-16T11:27:39.409Z,7.05
2022-08-16T11:30:09.174Z,6.97
2022-08-16T11:32:39.130Z,6.80
2022-08-16T11:35:10.872Z,6.50
2022-08-16T11:40:32.379Z,5.50
2022-08-16T11:43:00.041Z,6.10
2022-08-16T11:45:26.424Z,5.60
2022-08-16T11:47:53.345Z,6.40
2022-08-16T11:50:20.020Z,8.27
2022-08-16T11:52:46.874Z,7.18
2022-08-16T11:55:13.616Z,6.55
2022-08-16T11:57:42.255Z,6.68
2022-08-16T12:00:49.691Z,6.93
2022-08-16T12:02:58.463Z,5.60
2022-08-16T12:05:27.114Z,5.95
2022-08-16T12:07:55.218Z,6.00
2022-08-16T12:10:23.270Z,6.15
2022-08-16T12:12:54.531Z,6.18
2022-08-16T12:15:26.539Z,5.95
2022-08-16T12:17:55.659Z,7.80
2022-08-16T12:20:26.072Z,6.18
2022-08-16T12:22:56.596Z,7.87
2022-08-16T12:25:25.750Z,5.35
2022-08-16T12:27:53.069Z,5.15
2022-08-16T12:30:34.902Z,5.18
2022-08-16T12:33:05.523Z,5.75
2022-08-16T12:35:35.716Z,4.72
2022-08-16T12:38:38.277Z,4.53
2022-08-16T12:40:50.828Z,4.78
2022-08-16T12:43:23.486Z,4.85
2022-08-16T12:45:51.726Z,5.13
2022-08-16T12:48:39.024Z,4.97
2022-08-16T12:51:13.511Z,4.75
2022-08-16T12:53:47.217Z,4.60
2022-08-16T12:56:13.673Z,4.55
2022-08-16T12:58:49.792Z,4.45
2022-08-16T13:01:22.369Z,4.65
2022-08-16T13:03:49.423Z,4.88
2022-08-16T13:06:29.293Z,4.95
2022-08-16T13:09:02.263Z,5.00
2022-08-16T13:11:38.196Z,5.47
2022-08-16T13:14:07.792Z,4.63
2022-08-16T13:16:45.701Z,4.97
2022-08-16T13:19:12.010Z,4.43
2022-08-16T13:21:38.700Z,4.40
2022-08-16T13:24:07.654Z,4.35
2022-08-16T13:26:33.972Z,4.07
2022-08-16T13:29:00.286Z,4.90
2022-08-16T13:31:26.619Z,4.20
2022-08-16T13:33:54.588Z,4.45
2022-08-16T13:36:45.768Z,4.63
2022-08-16T13:39:11.532Z,6.05
2022-08-16T13:41:38.221Z,4.88
2022-08-16T13:44:09.168Z,4.70
2022-08-16T13:46:36.754Z,4.90
2022-08-16T13:49:04.160Z,5.10
2022-08-16T13:51:30.928Z,4.70
2022-08-16T13:54:03.031Z,4.47
2022-08-16T13:56:37.494Z,5.30
2022-08-16T13:59:19.286Z,4.50
2022-08-16T14:01:47.524Z,4.22
2022-08-16T14:04:26.083Z,4.28
2022-08-16T14:06:53.276Z,4.05
2022-08-16T14:09:21.140Z,4.20
2022-08-16T14:11:47.567Z,4.40
2022-08-16T14:14:16.080Z,4.13
2022-08-16T14:16:44.469Z,4.90
2022-08-16T14:19:11.943Z,4.20
2022-08-16T14:21:40.071Z,4.95
2022-08-16T14:24:07.837Z,5.05
2022-08-16T14:26:39.390Z,6.15
2022-08-16T14:29:06.517Z,5.45
2022-08-16T14:31:36.184Z,5.22
2022-08-16T14:34:06.151Z,5.80
2022-08-16T14:36:38.063Z,5.50
2022-08-16T14:39:08.581Z,5.40
2022-08-16T14:41:34.879Z,5.18
2022-08-16T14:44:04.152Z,4.80
2022-08-16T14:46:30.956Z,4.40
2022-08-16T14:48:57.272Z,4.68
2022-08-16T14:51:23.599Z,4.88
2022-08-16T14:53:53.968Z,4.90
2022-08-16T14:56:38.646Z,4.20
2022-08-16T14:59:07.034Z,5.10
2022-08-16T15:01:57.232Z,4.60
2022-08-16T15:04:39.694Z,4.43
2022-08-16T15:07:10.098Z,4.30
2022-08-16T15:09:44.320Z,4.20
2022-08-16T15:12:30.963Z,4.40
2022-08-16T15:15:00.689Z,4.25
2022-08-16T15:17:34.005Z,4.47
2022-08-16T15:20:08.745Z,4.30
2022-08-16T15:22:39.935Z,3.83
2022-08-16T15:25:08.996Z,3.47
2022-08-16T15:27:36.831Z,3.90
2022-08-16T15:30:47.768Z,4.25
2022-08-16T15:32:55.892Z,4.35
2022-08-16T15:35:22.225Z,4.20
2022-08-16T15:37:54.483Z,3.65
2022-08-16T15:40:32.284Z,3.63
2022-08-16T15:43:02.523Z,3.78
2022-08-16T15:45:47.426Z,5.82
2022-08-16T15:48:28.630Z,3.90
2022-08-16T15:50:57.229Z,4.20
2022-08-16T15:53:24.089Z,4.30
2022-08-16T15:55:51.872Z,4.13
2022-08-16T15:58:34.598Z,3.83
2022-08-16T16:01:04.224Z,3.60
2022-08-16T16:03:34.529Z,4.60
2022-08-16T16:06:02.420Z,3.97
2022-08-16T16:08:29.089Z,3.72
2022-08-16T16:10:56.942Z,3.78
2022-08-16T16:13:23.885Z,3.40
2022-08-16T16:15:51.541Z,3.70
2022-08-16T16:18:18.631Z,3.20
2022-08-16T16:20:53.669Z,3.17
2022-08-16T16:23:30.995Z,3.47
2022-08-16T16:25:57.769Z,3.55
2022-08-16T16:28:46.079Z,3.45
2022-08-16T16:31:14.425Z,3.50
2022-08-16T16:33:43.400Z,3.28
2022-08-16T16:36:13.524Z,3.42
2022-08-16T16:38:42.818Z,4.38
2022-08-16T16:41:10.039Z,4.72
2022-08-16T16:43:38.512Z,3.53
2022-08-16T16:46:42.336Z,3.40
2022-08-16T16:48:53.869Z,3.40
2022-08-16T16:51:21.260Z,3.53
2022-08-16T16:53:55.994Z,3.50
2022-08-16T16:56:31.067Z,4.00
2022-08-16T16:59:04.829Z,4.18
2022-08-16T17:01:57.813Z,3.70
2022-08-16T17:04:23.895Z,3.50
2022-08-16T17:06:57.872Z,3.53
2022-08-16T17:09:24.650Z,3.50
2022-08-16T17:11:54.927Z,3.78
2022-08-16T17:14:33.253Z,4.13
2022-08-16T17:17:01.096Z,3.95
2022-08-16T17:19:31.643Z,3.95
2022-08-16T17:21:58.301Z,4.28
2022-08-16T17:24:31.275Z,3.95
2022-08-16T17:27:04.173Z,4.18
2022-08-16T17:29:30.812Z,4.70
2022-08-16T17:32:32.526Z,4.13
2022-08-16T17:34:46.567Z,4.45
2022-08-16T17:37:17.724Z,5.03
2022-08-16T17:39:59.987Z,3.88
2022-08-16T17:42:27.055Z,4.40
2022-08-16T17:44:54.549Z,4.32
2022-08-16T17:47:21.428Z,4.10
2022-08-16T17:49:47.730Z,4.25
2022-08-16T17:52:14.699Z,3.70
2022-08-16T17:54:41.128Z,3.42
2022-08-16T17:57:07.562Z,4.25
2022-08-16T17:59:35.526Z,3.90
2022-08-16T18:02:41.044Z,4.30
2022-08-16T18:04:53.839Z,4.00
2022-08-16T18:07:20.390Z,4.10
2022-08-16T18:09:46.722Z,4.43
2022-08-16T18:12:50.821Z,4.00
2022-08-16T18:15:04.461Z,4.22
2022-08-16T18:17:31.933Z,4.50
2022-08-16T18:19:58.281Z,4.43
2022-08-16T18:22:30.410Z,4.00
2022-08-16T18:24:57.440Z,3.95
2022-08-16T18:27:26.562Z,4.75
2022-08-16T18:29:53.661Z,4.55
2022-08-16T18:32:24.444Z,4.38
2022-08-16T18:34:51.540Z,4.80
2022-08-16T18:37:17.901Z,5.38
2022-08-16T18:39:44.418Z,4.20
2022-08-16T18:42:12.191Z,4.78
2022-08-16T18:44:40.562Z,5.05
2022-08-16T18:47:07.097Z,5.03
2022-08-16T18:49:34.460Z,5.18
2022-08-16T18:52:01.780Z,4.60
2022-08-16T18:54:29.168Z,5.25
2022-08-16T18:56:57.958Z,4.72
2022-08-16T18:59:29.150Z,4.72
2022-08-16T19:02:04.355Z,4.55
2022-08-16T19:04:48.972Z,4.68
2022-08-16T19:07:19.123Z,4.57
2022-08-16T19:09:45.745Z,5.07
2022-08-16T19:12:12.370Z,4.78
2022-08-16T19:14:42.573Z,5.22
2022-08-16T19:17:11.204Z,5.03
2022-08-16T19:19:37.740Z,5.20
2022-08-16T19:22:05.953Z,4.50
2022-08-16T19:24:32.293Z,5.13
2022-08-16T19:26:58.727Z,5.32
2022-08-16T19:29:25.156Z,5.30
2022-08-16T19:31:51.527Z,5.25
2022-08-16T19:34:17.994Z,6.57
2022-08-16T19:36:44.318Z,5.60
2022-08-16T19:39:13.604Z,4.88
2022-08-16T19:41:43.045Z,5.00
2022-08-16T19:44:09.925Z,5.05
2022-08-16T19:46:37.938Z,5.88
2022-08-16T19:49:05.152Z,5.10
2022-08-16T19:51:31.733Z,5.90
2022-08-16T19:53:58.374Z,6.00
2022-08-16T19:56:26.717Z,5.45
2022-08-16T19:59:18.142Z,5.47
2022-08-16T20:01:42.604Z,5.90
2022-08-16T20:04:12.064Z,6.47
2022-08-16T20:06:39.472Z,6.07
2022-08-16T20:09:06.563Z,6.40
2022-08-16T20:11:34.204Z,6.55
2022-08-16T20:14:00.638Z,6.07
2022-08-16T20:16:26.983Z,6.43
2022-08-16T20:18:53.342Z,8.68
2022-08-16T20:21:19.857Z,8.95
2022-08-16T20:23:46.436Z,9.45
2022-08-16T20:26:13.108Z,9.68
2022-08-16T20:28:52.922Z,10.48
2022-08-16T20:31:20.923Z,9.23
2022-08-16T20:33:47.265Z,8.57
2022-08-16T20:36:16.289Z,8.80
2022-08-16T20:38:45.795Z,9.40
2022-08-16T20:41:12.220Z,7.75
2022-08-16T20:43:38.551Z,8.30
2022-08-16T20:46:06.403Z,8.15
2022-08-16T20:48:33.095Z,7.97
2022-08-16T20:50:59.444Z,8.25
2022-08-16T20:53:25.756Z,9.68
2022-08-16T20:55:52.304Z,10.18
2022-08-16T20:58:18.725Z,12.38
2022-08-16T21:00:45.527Z,12.75
2022-08-16T21:03:13.030Z,14.43
2022-08-16T21:05:39.384Z,13.77
2022-08-16T21:08:27.927Z,14.38
2022-08-16T21:10:52.633Z,13.68
2022-08-16T21:13:20.908Z,14.13
2022-08-16T21:15:47.381Z,14.65
2022-08-16T21:18:13.780Z,15.32
2022-08-16T21:20:40.301Z,16.27
2022-08-16T21:23:08.709Z,18.40
2022-08-16T21:25:36.076Z,13.68
2022-08-16T21:28:41.809Z,12.68
2022-08-16T21:30:52.387Z,14.38
2022-08-16T21:33:19.626Z,15.57
2022-08-16T21:35:47.060Z,15.95
2022-08-16T21:38:29.001Z,16.75
2022-08-16T21:40:56.219Z,19.10
2022-08-16T21:43:27.664Z,26.05
2022-08-16T21:45:55.356Z,29.80
2022-08-16T21:48:34.712Z,29.38
2022-08-16T21:51:06.432Z,32.03
2022-08-16T21:53:32.819Z,33.35
2022-08-16T21:55:59.600Z,33.88
2022-08-16T21:58:26.046Z,33.70
2022-08-16T22:00:52.611Z,34.95
2022-08-16T22:03:19.047Z,36.30
2022-08-16T22:06:11.843Z,38.15
2022-08-16T22:08:34.217Z,39.05
2022-08-16T22:11:07.183Z,38.75
2022-08-16T22:13:35.040Z,40.33
2022-08-16T22:16:03.404Z,42.95
2022-08-16T22:18:29.725Z,35.67
2022-08-16T22:20:56.249Z,39.75
2022-08-16T22:23:24.273Z,43.92
2022-08-16T22:25:51.683Z,44.92
2022-08-16T22:28:18.816Z,44.97
2022-08-16T22:30:45.502Z,39.05
2022-08-16T22:33:13.952Z,37.20
2022-08-16T22:35:41.570Z,43.95
2022-08-16T22:38:50.244Z,39.75
2022-08-16T22:40:54.691Z,40.22
2022-08-16T22:43:21.569Z,40.17
2022-08-16T22:45:48.056Z,42.58
2022-08-16T22:48:16.320Z,43.97
2022-08-16T22:50:43.230Z,44.58
2022-08-16T22:53:10.233Z,42.45
2022-08-16T22:55:36.777Z,42.38
2022-08-16T22:58:04.454Z,34.03
2022-08-16T23:00:33.145Z,39.60
2022-08-16T23:03:01.516Z,34.65
2022-08-16T23:05:29.264Z,37.92
2022-08-16T23:07:55.708Z,34.60
2022-08-16T23:10:22.618Z,37.53
2022-08-16T23:12:50.486Z,37.88
2022-08-16T23:15:17.176Z,33.28
2022-08-16T23:17:43.696Z,32.95
2022-08-16T23:20:10.895Z,32.70
2022-08-16T23:23:20.797Z,34.70
2022-08-16T23:25:30.163Z,34.72
2022-08-16T23:27:56.937Z,35.17
2022-08-16T23:30:24.069Z,31.80
2022-08-16T23:32:59.777Z,31.20
2022-08-16T23:35:27.483Z,32.97
2022-08-16T23:38:37.665Z,29.88
2022-08-16T23:41:00.734Z,31.42
2022-08-16T23:43:29.133Z,32.63
2022-08-16T23:45:57.625Z,32.55
2022-08-16T23:48:26.002Z,30.83
2022-08-16T23:50:53.450Z,31.48
2022-08-16T23:53:24.587Z,29.77
2022-08-16T23:55:52.936Z,29.30
2022-08-16T23:58:21.275Z,31.38
